Dubuisson, Canada
Current Conditions -  °F | °C
As of 10:00 AM on Wednesday 26 Nov 2014 (Local Time) from CYVO Reporting Station
Snow Showers Snow Showers  
Wind Chill: 11°   Ceiling: 2000
Heat Index: 18°   Visibility: 4mi
Dew Point: 12°   Wind: 5mph
Humidity: 79%   Direction: 220°SW
Pressure: 30.24"   Gusts: NA
Location:  48.1°N, 77.9°W
Report Text: CYVO 261500Z 22004KT 4SM -SHSN OVC020 M08/M11 A3024 RMK SC8 PRESRR SLP266
Loading
Personal Weather Stations






























Interactive Weather Map New forecast layout! Learn more

10-Day Weather Forecast

Advertisements
Track Severe Weather on mobile